Time;durP1;ratioP1;P1;durP2;ratioP2;P2;SDS_P1;SDS_P2;PMS_P1;PMS_P2;Temp;Humidity;BMP_temperature;BMP_pressure;BME280_temperature;BME280_humidity;BME280_pressure;Samples;Min_cycle;Max_cycle;Signal;HPM_P1;HPM_P2
2023/11/27 00:02:11;;;;;;;33.50;16.67;;;;;;;4.31;100.00;100910.22;5076452;28;20042;-75
2023/11/27 00:04:36;;;;;;;26.38;16.35;;;;;;;4.30;100.00;100913.81;5076303;28;20032;-76
2023/11/27 00:07:01;;;;;;;26.20;15.48;;;;;;;4.28;100.00;100893.75;5094526;28;20390;-75
2023/11/27 00:09:27;;;;;;;25.17;14.68;;;;;;;4.26;100.00;100893.88;5076296;28;20020;-75
2023/11/27 00:11:52;;;;;;;29.55;14.95;;;;;;;4.24;100.00;100893.13;5093618;28;20032;-73
2023/11/27 00:14:17;;;;;;;30.02;13.02;;;;;;;4.26;100.00;100890.41;5076287;28;20036;-75
2023/11/27 00:16:43;;;;;;;25.92;13.90;;;;;;;4.22;100.00;100881.81;5094673;28;20062;-74
2023/11/27 00:19:08;;;;;;;24.13;13.85;;;;;;;4.24;100.00;100872.06;5094285;28;20036;-74
2023/11/27 00:21:34;;;;;;;22.25;12.77;;;;;;;4.22;100.00;100872.16;5094217;28;20078;-75
2023/11/27 00:23:59;;;;;;;18.95;12.27;;;;;;;4.22;100.00;100861.63;5094178;28;20028;-74
2023/11/27 00:26:25;;;;;;;22.83;12.73;;;;;;;4.20;100.00;100852.94;5094190;28;20112;-76
2023/11/27 00:28:52;;;;;;;26.48;13.05;;;;;;;4.21;100.00;100848.50;5094039;28;20116;-74
2023/11/27 00:31:17;;;;;;;23.55;12.10;;;;;;;4.18;100.00;100848.72;5094132;28;20029;-74
2023/11/27 00:33:46;;;;;;;23.00;12.20;;;;;;;4.20;100.00;100834.50;5093960;28;20054;-75
2023/11/27 00:36:12;;;;;;;26.90;13.32;;;;;;;4.17;100.00;100828.59;5093937;28;20024;-74
2023/11/27 00:38:38;;;;;;;21.25;11.73;;;;;;;4.16;100.00;100824.28;5094170;28;20036;-74
2023/11/27 00:41:05;;;;;;;20.98;12.63;;;;;;;4.16;100.00;100806.69;5093930;28;20384;-75
2023/11/27 00:43:32;;;;;;;21.88;11.70;;;;;;;4.16;100.00;100808.47;5093867;28;20034;-75
2023/11/27 00:45:57;;;;;;;19.35;11.88;;;;;;;4.15;100.00;100804.13;5094088;28;20046;-76
2023/11/27 00:48:23;;;;;;;22.48;12.40;;;;;;;4.14;100.00;100799.84;5094552;28;20452;-75
2023/11/27 00:50:48;;;;;;;21.15;12.10;;;;;;;4.12;100.00;100792.03;5093412;28;20512;-74
2023/11/27 00:53:13;;;;;;;18.77;11.88;;;;;;;4.12;100.00;100788.53;5094155;28;20039;-75
2023/11/27 00:55:39;;;;;;;22.05;12.60;;;;;;;4.10;100.00;100780.72;5093495;28;20103;-75
2023/11/27 00:58:04;;;;;;;22.50;12.65;;;;;;;4.09;100.00;100779.06;5093841;28;20071;-75
2023/11/27 01:00:30;;;;;;;26.98;12.43;;;;;;;4.08;100.00;100772.09;5093640;28;20361;-75
2023/11/27 01:02:56;;;;;;;23.15;11.80;;;;;;;4.08;100.00;100776.53;5075346;28;20440;-75
2023/11/27 01:05:21;;;;;;;20.52;12.32;;;;;;;4.06;100.00;100764.31;5094007;28;20043;-75
2023/11/27 01:07:46;;;;;;;23.92;12.00;;;;;;;4.08;100.00;100761.56;5093402;28;20079;-75
2023/11/27 01:10:12;;;;;;;18.25;12.68;;;;;;;4.08;100.00;100764.19;5093205;28;20036;-75
2023/11/27 01:12:43;;;;;;;17.25;11.88;;;;;;;4.09;100.00;100755.38;5075898;28;20055;-76
2023/11/27 01:15:11;;;;;;;18.92;12.32;;;;;;;4.11;100.00;100752.63;5093953;28;20107;-75
2023/11/27 01:17:37;;;;;;;20.45;12.55;;;;;;;4.12;100.00;100749.03;5075593;28;20029;-75
2023/11/27 01:20:04;;;;;;;18.77;12.10;;;;;;;4.12;100.00;100743.78;5093389;28;20425;-76
2023/11/27 01:22:30;;;;;;;17.73;12.20;;;;;;;4.11;100.00;100729.78;5093902;28;20437;-74
2023/11/27 01:24:55;;;;;;;16.55;12.10;;;;;;;4.12;100.00;100735.88;5097150;28;20074;-75
2023/11/27 01:27:20;;;;;;;15.57;10.88;;;;;;;4.11;100.00;100737.66;5097668;28;20044;-75
2023/11/27 01:29:46;;;;;;;17.10;12.38;;;;;;;4.12;100.00;100722.69;5079569;28;20068;-77
2023/11/27 01:32:11;;;;;;;19.05;12.10;;;;;;;4.13;100.00;100719.13;5097633;28;20035;-74
2023/11/27 01:34:37;;;;;;;19.17;11.93;;;;;;;4.11;100.00;100703.44;5097228;28;20032;-75
2023/11/27 01:37:02;;;;;;;18.65;12.50;;;;;;;4.10;100.00;100701.75;5078745;28;20028;-74
2023/11/27 01:39:27;;;;;;;14.20;11.75;;;;;;;4.11;100.00;100697.34;5097671;28;20464;-74
2023/11/27 01:41:53;;;;;;;19.67;12.85;;;;;;;4.09;100.00;100691.31;5097184;28;20135;-75
2023/11/27 01:44:18;;;;;;;17.20;12.60;;;;;;;4.06;100.00;100684.44;5097554;28;20070;-76
2023/11/27 01:46:45;;;;;;;20.27;13.80;;;;;;;4.05;100.00;100680.97;5097450;28;20067;-75
2023/11/27 01:49:12;;;;;;;19.13;13.35;;;;;;;4.03;100.00;100682.00;5078936;28;20032;-76
2023/11/27 01:51:39;;;;;;;19.23;13.57;;;;;;;4.04;100.00;100686.34;5079237;28;20031;-76
2023/11/27 01:54:05;;;;;;;18.73;12.82;;;;;;;4.00;100.00;100672.56;5078825;28;20043;-76
2023/11/27 01:56:31;;;;;;;19.58;13.20;;;;;;;4.00;100.00;100672.56;5062145;28;20032;-75
2023/11/27 01:58:58;;;;;;;19.63;13.23;;;;;;;4.00;100.00;100658.53;5096697;28;20159;-75
2023/11/27 02:01:25;;;;;;;18.77;13.05;;;;;;;3.98;100.00;100652.53;5096918;28;20035;-75
2023/11/27 02:03:50;;;;;;;16.85;12.70;;;;;;;3.99;100.00;100648.97;5097627;28;20317;-74
2023/11/27 02:06:16;;;;;;;20.60;13.20;;;;;;;3.98;100.00;100650.72;5078673;28;20028;-75
2023/11/27 02:08:42;;;;;;;18.67;12.90;;;;;;;3.98;100.00;100640.19;5096773;28;20066;-75
2023/11/27 02:11:07;;;;;;;19.65;12.90;;;;;;;3.97;100.00;100633.25;5096920;28;20055;-77
2023/11/27 02:13:32;;;;;;;22.45;13.48;;;;;;;3.96;100.00;100628.09;5062654;28;20134;-75
2023/11/27 02:15:58;;;;;;;22.15;13.73;;;;;;;3.97;100.00;100640.28;5096169;28;20035;-75
2023/11/27 02:18:23;;;;;;;20.77;13.07;;;;;;;3.94;100.00;100622.94;5096571;28;20032;-76
2023/11/27 02:20:49;;;;;;;25.13;13.27;;;;;;;3.92;100.00;100627.44;5096532;28;20035;-74
2023/11/27 02:23:16;;;;;;;20.33;13.13;;;;;;;3.91;100.00;100622.28;5097128;28;20028;-75
2023/11/27 02:25:42;;;;;;;20.48;12.70;;;;;;;3.87;100.00;100617.22;5097021;28;20028;-76
2023/11/27 02:28:07;;;;;;;19.40;12.48;;;;;;;3.87;100.00;100604.06;5078850;28;20059;-75
2023/11/27 02:30:33;;;;;;;22.45;13.00;;;;;;;3.86;100.00;100597.09;5096626;28;20032;-75
2023/11/27 02:32:59;;;;;;;25.45;12.82;;;;;;;3.84;100.00;100593.75;5096194;28;20039;-75
2023/11/27 02:35:25;;;;;;;22.15;13.15;;;;;;;3.82;100.00;100598.28;5077144;28;20032;-76
2023/11/27 02:37:51;;;;;;;20.30;13.60;;;;;;;3.81;100.00;100590.47;5096143;28;20027;-75
2023/11/27 02:40:17;;;;;;;19.80;12.50;;;;;;;3.83;100.00;100585.94;5096203;28;20055;-74
2023/11/27 02:42:43;;;;;;;19.90;12.55;;;;;;;3.79;100.00;100580.06;5096097;28;20460;-74
2023/11/27 02:45:10;;;;;;;16.85;11.95;;;;;;;3.78;100.00;100569.63;5096303;28;20043;-73
2023/11/27 02:47:36;;;;;;;21.48;12.02;;;;;;;3.73;100.00;100563.81;5095714;28;20541;-75
2023/11/27 02:50:01;;;;;;;20.83;12.15;;;;;;;3.73;100.00;100558.53;5096197;28;20036;-75
2023/11/27 02:52:27;;;;;;;22.70;12.25;;;;;;;3.71;100.00;100558.66;5096811;28;20363;-75
2023/11/27 02:54:53;;;;;;;16.33;11.35;;;;;;;3.70;100.00;100547.28;5095726;28;20488;-76
2023/11/27 02:57:19;;;;;;;15.93;10.50;;;;;;;3.66;100.00;100542.34;5095702;28;20056;-75
2023/11/27 02:59:44;;;;;;;17.45;10.73;;;;;;;3.65;100.00;100544.09;5096454;28;20044;-74
2023/11/27 03:02:10;;;;;;;17.75;10.85;;;;;;;3.65;100.00;100544.09;5095441;28;20055;-74
2023/11/27 03:04:36;;;;;;;14.23;10.35;;;;;;;3.65;100.00;100543.28;5095670;28;20044;-74
2023/11/27 03:07:01;;;;;;;17.75;10.68;;;;;;;3.65;100.00;100543.28;5095327;28;20064;-73
2023/11/27 03:09:27;;;;;;;18.23;10.35;;;;;;;3.63;100.00;100527.59;5095643;28;20392;-74
2023/11/27 03:11:52;;;;;;;15.63;10.10;;;;;;;3.62;100.00;100527.69;5095528;28;20089;-74
2023/11/27 03:14:18;;;;;;;17.20;10.18;;;;;;;3.59;100.00;100520.84;5077219;28;20093;-73
2023/11/27 03:16:43;;;;;;;16.20;9.57;;;;;;;3.60;100.00;100505.88;5095297;28;20102;-73
2023/11/27 03:19:08;;;;;;;12.30;9.57;;;;;;;3.59;100.00;100502.41;5095310;28;20043;-74
2023/11/27 03:21:35;;;;;;;13.07;9.50;;;;;;;3.61;100.00;100502.31;5095658;28;20039;-74
2023/11/27 03:24:00;;;;;;;15.02;9.52;;;;;;;3.55;100.00;100493.03;5094995;28;20028;-75
2023/11/27 03:26:26;;;;;;;13.27;9.48;;;;;;;3.52;100.00;100491.47;5095348;28;20051;-74
2023/11/27 03:28:51;;;;;;;14.40;10.20;;;;;;;3.52;100.00;100480.09;5077093;28;20121;-73
2023/11/27 03:31:17;;;;;;;14.10;10.57;;;;;;;3.51;100.00;100476.63;5094832;28;20032;-74
2023/11/27 03:33:42;;;;;;;18.05;10.07;;;;;;;3.51;100.00;100476.63;5095119;28;20032;-74
2023/11/27 03:36:08;;;;;;;16.10;10.27;;;;;;;3.52;100.00;100478.31;5076747;28;20123;-74
2023/11/27 03:38:34;;;;;;;13.25;9.75;;;;;;;3.52;100.00;100472.19;5077065;28;20044;-74
2023/11/27 03:40:59;;;;;;;13.05;9.40;;;;;;;3.50;100.00;100461.78;5094847;28;20032;-74
2023/11/27 03:43:24;;;;;;;13.85;9.70;;;;;;;3.49;100.00;100456.63;5076798;28;20127;-74
2023/11/27 03:45:50;;;;;;;13.23;9.80;;;;;;;3.47;100.00;100458.53;5094724;28;20032;-74
2023/11/27 03:48:15;;;;;;;15.63;9.98;;;;;;;3.48;100.00;100453.16;5094524;28;20024;-74
2023/11/27 03:50:41;;;;;;;13.35;8.95;;;;;;;3.48;100.00;100447.06;5094176;28;20070;-89
2023/11/27 03:53:07;;;;;;;14.10;10.23;;;;;;;3.47;100.00;100440.94;5094596;28;20483;-86
2023/11/27 03:55:32;;;;;;;12.07;9.32;;;;;;;3.47;100.00;100432.22;5075903;28;20120;-85
2023/11/27 03:57:58;;;;;;;14.32;9.75;;;;;;;3.45;100.00;100427.06;5042570;28;20485;-85
2023/11/27 04:00:25;;;;;;;14.60;9.50;;;;;;;3.46;100.00;100422.63;5093640;28;20481;-87
2023/11/27 04:02:51;;;;;;;14.07;9.43;;;;;;;3.45;100.00;100413.03;5094641;28;20032;-84
2023/11/27 04:05:19;;;;;;;12.73;8.98;;;;;;;3.48;100.00;100407.59;5059594;28;20376;-91
2023/11/27 04:07:44;;;;;;;12.40;9.02;;;;;;;3.44;100.00;100404.31;5076117;28;20123;-87
2023/11/27 04:10:15;;;;;;;14.10;9.13;;;;;;;3.43;100.00;100399.16;5076384;28;20182;-85
2023/11/27 04:12:43;;;;;;;13.27;7.78;;;;;;;3.38;100.00;100394.22;5077043;28;20028;-87
2023/11/27 04:15:09;;;;;;;11.73;7.68;;;;;;;3.36;100.00;100390.88;5093960;28;20032;-85
2023/11/27 04:17:34;;;;;;;11.80;8.23;;;;;;;3.35;100.00;100383.91;5076868;28;20085;-86
2023/11/27 04:20:05;;;;;;;10.82;7.90;;;;;;;3.34;100.00;100375.19;5058804;28;20036;-85
2023/11/27 04:22:33;;;;;;;10.30;7.40;;;;;;;3.34;100.00;100371.69;5060508;28;20051;-87
2023/11/27 04:24:59;;;;;;;12.32;7.55;;;;;;;3.31;100.00;100362.25;5093868;28;20040;-91
2023/11/27 04:27:24;;;;;;;9.45;6.85;;;;;;;3.30;100.00;100363.19;5075535;28;20040;-84
2023/11/27 04:29:50;;;;;;;10.50;7.38;;;;;;;3.28;100.00;100354.53;5058771;28;20131;-84
2023/11/27 04:32:15;;;;;;;11.15;7.38;;;;;;;3.28;100.00;100348.44;5075035;28;20055;-85
2023/11/27 04:34:40;;;;;;;10.65;7.00;;;;;;;3.27;100.00;100344.13;5074863;28;20046;-84
2023/11/27 04:37:07;;;;;;;10.75;6.53;;;;;;;3.26;100.00;100343.28;5058313;28;20109;-88
2023/11/27 04:39:35;;;;;;;10.27;6.90;;;;;;;3.23;100.00;100334.78;5075340;28;20039;-89
2023/11/27 04:42:00;;;;;;;9.45;7.05;;;;;;;3.22;100.00;100328.66;5093273;28;20085;-87
2023/11/27 04:44:25;;;;;;;10.70;7.05;;;;;;;3.22;100.00;100318.16;5074865;28;20035;-88
2023/11/27 04:46:53;;;;;;;10.15;7.82;;;;;;;3.21;100.00;100308.59;5093208;28;20081;-84
2023/11/27 04:49:20;;;;;;;12.38;8.48;;;;;;;3.22;100.00;100312.88;5092628;28;20032;-90
2023/11/27 04:51:46;;;;;;;10.77;8.30;;;;;;;3.18;100.00;100307.00;5092707;28;20036;-86
2023/11/27 04:54:11;;;;;;;11.02;8.70;;;;;;;3.18;100.00;100301.75;5058257;28;20084;-85
2023/11/27 04:56:36;;;;;;;13.95;8.98;;;;;;;3.18;100.00;100301.75;5074394;28;20040;-85
2023/11/27 04:59:02;;;;;;;16.17;9.45;;;;;;;3.16;100.00;100297.53;5092096;28;20067;-87
2023/11/27 05:01:28;;;;;;;12.20;9.23;;;;;;;3.17;100.00;100286.09;5057369;28;20399;-85
2023/11/27 05:03:55;;;;;;;15.73;10.43;;;;;;;3.15;100.00;100278.31;5057956;28;20041;-84
2023/11/27 05:06:21;;;;;;;14.77;10.80;;;;;;;3.16;100.00;100277.38;5074322;28;20128;-86
2023/11/27 05:08:46;;;;;;;19.13;10.35;;;;;;;3.15;100.00;100267.78;5092375;28;20043;-87
2023/11/27 05:11:22;;;;;;;18.45;10.68;;;;;;;3.13;100.00;100271.47;5074321;28;20476;-85
2023/11/27 05:13:48;;;;;;;15.50;11.15;;;;;;;3.12;100.00;100270.63;5073993;28;20115;-87
2023/11/27 05:16:14;;;;;;;16.55;11.05;;;;;;;3.10;100.00;100264.63;5092952;28;20081;-92
2023/11/27 05:18:41;;;;;;;15.50;11.43;;;;;;;3.10;100.00;100251.47;5074856;28;20032;-89
2023/11/27 05:21:13;;;;;;;17.90;11.68;;;;;;;3.09;100.00;100254.22;5092894;28;20145;-89
2023/11/27 05:23:41;;;;;;;;;;;;;;;3.10;100.00;100248.00;5093088;28;20039;-86
2023/11/27 05:26:07;;;;;;;17.48;12.13;;;;;;;3.07;100.00;100243.81;5074440;28;19912;-86
2023/11/27 05:28:37;;;;;;;17.40;12.23;;;;;;;3.09;100.00;100247.19;5073618;28;20028;-87
2023/11/27 05:31:03;;;;;;;22.30;13.95;;;;;;;3.09;100.00;100234.03;5074712;28;20055;-90
2023/11/27 05:33:29;;;;;;;22.40;14.32;;;;;;;3.08;100.00;100228.88;5092075;28;20031;-90
2023/11/27 05:35:56;;;;;;;24.50;14.00;;;;;;;3.07;100.00;100227.19;5073996;28;20351;-86
2023/11/27 05:38:22;;;;;;;21.70;14.10;;;;;;;3.06;100.00;100217.63;5092211;28;20107;-88
2023/11/27 05:40:50;;;;;;;21.25;14.65;;;;;;;3.05;100.00;100213.31;5074203;28;20456;-85
2023/11/27 05:43:21;;;;;;;23.33;15.10;;;;;;;3.03;100.00;100207.31;5073699;28;20032;-87
2023/11/27 05:45:50;;;;;;;21.23;14.80;;;;;;;3.06;100.00;100213.22;5092506;28;20032;-88
2023/11/27 05:48:19;;;;;;;23.60;14.52;;;;;;;3.09;100.00;100201.63;5092154;28;20486;-87
2023/11/27 05:50:48;;;;;;;21.80;15.02;;;;;;;3.06;100.00;100202.72;5074127;28;20039;-88
2023/11/27 05:53:18;;;;;;;25.73;15.02;;;;;;;3.08;100.00;100202.59;5074362;28;20063;-88
2023/11/27 05:55:44;;;;;;;21.65;14.85;;;;;;;3.04;100.00;100180.94;5074887;28;20052;-87
2023/11/27 05:58:19;;;;;;;24.73;15.23;;;;;;;3.07;100.00;100191.22;5073672;28;20150;-88
2023/11/27 06:00:44;;;;;;;21.83;15.25;;;;;;;3.07;100.00;100185.13;5057784;28;20039;-88
2023/11/27 06:03:10;;;;;;;21.92;14.60;;;;;;;3.05;100.00;100169.47;5073987;28;20368;-87
2023/11/27 06:05:45;;;;;;;;;;;;;;;;;;;;;
2023/11/27 06:08:25;;;;;;;;;;;;;;;;;;;;;
2023/11/27 06:10:50;;;;;;;21.85;14.00;;;;;;;3.04;100.00;100165.16;5079830;28;20071;-89
2023/11/27 06:13:16;;;;;;;21.30;14.63;;;;;;;3.02;100.00;100153.09;5077581;28;20119;-85
2023/11/27 06:15:46;;;;;;;23.15;14.68;;;;;;;3.03;100.00;100155.63;5077276;28;20020;-90
2023/11/27 06:18:21;;;;;;;21.83;14.73;;;;;;;3.03;100.00;100152.13;5078232;28;20059;-86
2023/11/27 06:20:48;;;;;;;19.50;13.68;;;;;;;3.01;100.00;100144.34;5096424;28;20024;-92
2023/11/27 06:23:14;;;;;;;22.90;15.68;;;;;;;3.02;100.00;100127.63;5096285;28;20518;-92
2023/11/27 06:25:40;;;;;;;22.98;14.48;;;;;;;3.01;100.00;100120.69;5077728;28;20559;-93
2023/11/27 06:28:08;;;;;;;22.15;14.45;;;;;;;3.04;100.00;100112.59;5095428;28;20068;-90
2023/11/27 06:30:39;;;;;;;23.55;14.73;;;;;;;3.03;100.00;100112.69;5095839;28;20024;-92
2023/11/27 06:33:07;;;;;;;23.08;15.32;;;;;;;3.04;100.00;100098.63;5096165;28;20500;-89
2023/11/27 06:35:35;;;;;;;20.33;14.60;;;;;;;3.04;100.00;100096.00;5076702;28;20028;-86
2023/11/27 06:38:02;;;;;;;23.33;14.98;;;;;;;3.04;100.00;100081.03;5077019;28;20028;-86
2023/11/27 06:40:33;;;;;;;26.20;15.82;;;;;;;3.06;100.00;100088.81;5077023;28;20032;-85
2023/11/27 06:43:06;;;;;;;23.77;14.02;;;;;;;3.09;100.00;100080.72;5096010;28;20028;-87
2023/11/27 06:45:31;;;;;;;22.30;14.57;;;;;;;3.08;100.00;100071.16;5076969;28;20481;-87
2023/11/27 06:47:59;;;;;;;26.88;14.70;;;;;;;3.08;100.00;100074.63;5095012;28;20032;-84
2023/11/27 06:50:25;;;;;;;23.80;14.50;;;;;;;3.09;100.00;100076.31;5096680;28;20028;-87
2023/11/27 06:52:50;;;;;;;21.23;14.07;;;;;;;3.11;100.00;100074.41;5076522;28;20050;-87
2023/11/27 06:55:16;;;;;;;24.00;15.02;;;;;;;3.11;100.00;100069.16;5076141;28;20154;-86
2023/11/27 06:57:49;;;;;;;25.40;15.13;;;;;;;3.15;100.00;100064.50;5076436;28;20048;-90
2023/11/27 07:00:22;;;;;;;25.00;14.88;;;;;;;3.15;100.00;100064.50;5076235;28;20081;-86
2023/11/27 07:02:48;;;;;;;22.35;13.95;;;;;;;3.16;100.00;100063.56;5076403;28;20043;-84
2023/11/27 07:05:20;;;;;;;21.67;14.63;;;;;;;3.19;100.00;100063.34;5076813;28;20048;-84
2023/11/27 07:07:46;;;;;;;22.52;14.85;;;;;;;3.19;100.00;100060.72;5076155;28;20039;-85
2023/11/27 07:10:14;;;;;;;25.75;15.70;;;;;;;3.21;100.00;100053.56;5095505;28;20036;-87
2023/11/27 07:12:42;;;;;;;25.02;15.45;;;;;;;3.24;100.00;100042.81;5094052;28;20024;-85
2023/11/27 07:15:11;;;;;;;24.02;15.77;;;;;;;3.25;100.00;100035.75;5076307;28;20024;-88
2023/11/27 07:17:37;;;;;;;27.33;16.55;;;;;;;3.27;100.00;100039.13;5095028;28;20023;-88
2023/11/27 07:20:04;;;;;;;27.08;17.38;;;;;;;3.30;100.00;100038.88;5094588;28;20020;-86
2023/11/27 07:22:34;;;;;;;29.08;16.80;;;;;;;3.31;100.00;100030.06;5093971;28;20028;-89
2023/11/27 07:25:02;;;;;;;26.77;16.45;;;;;;;3.29;100.00;100032.81;5095071;28;20035;-89
2023/11/27 07:27:28;;;;;;;29.35;16.85;;;;;;;3.31;100.00;100024.81;5094662;28;20078;-84
2023/11/27 07:30:04;;;;;;;;;;;;;;;;;;;;;
2023/11/27 07:32:39;;;;;;;27.98;18.05;;;;;;;3.31;100.00;100006.41;5095130;28;20028;-85
2023/11/27 07:35:19;;;;;;;;;;;;;;;;;;;;;
2023/11/27 07:37:55;;;;;;;28.15;17.92;;;;;;;3.35;100.00;100007.84;5095766;28;20394;-89
2023/11/27 07:40:21;;;;;;;28.42;17.67;;;;;;;3.37;100.00;100002.47;5076851;28;20468;-86
2023/11/27 07:42:46;;;;;;;30.88;18.23;;;;;;;3.36;100.00;99993.75;5075382;28;20032;-87
2023/11/27 07:45:12;;;;;;;33.15;18.48;;;;;;;3.35;100.00;99994.72;5093750;28;20060;-87
2023/11/27 07:47:52;;;;;;;31.45;18.55;;;;;;;3.37;100.00;99984.91;5093689;28;20527;-88
2023/11/27 07:50:26;;;;;;;32.78;18.58;;;;;;;3.41;100.00;99982.91;5077038;28;20123;-87
2023/11/27 07:52:54;;;;;;;34.95;19.02;;;;;;;3.40;100.00;99983.84;5093820;28;20028;-87
2023/11/27 07:55:23;;;;;;;31.73;18.48;;;;;;;3.40;100.00;99979.41;5076214;28;20086;-88
2023/11/27 07:57:48;;;;;;;34.90;19.13;;;;;;;3.44;100.00;99980.03;5094566;28;20047;-89
2023/11/27 08:00:16;;;;;;;35.83;19.48;;;;;;;3.43;100.00;99968.66;5075683;28;20098;-85
2023/11/27 08:02:44;;;;;;;30.73;18.13;;;;;;;3.46;100.00;99973.72;5059713;28;20115;-87
2023/11/27 08:05:09;;;;;;;32.40;18.98;;;;;;;3.47;100.00;99971.91;5094772;28;20090;-84
2023/11/27 08:07:35;;;;;;;33.70;19.85;;;;;;;3.49;100.00;99972.63;5075756;28;20479;-84
2023/11/27 08:10:04;;;;;;;31.67;18.90;;;;;;;3.47;100.00;99964.84;5059564;28;20444;-87
2023/11/27 08:12:29;;;;;;;35.53;20.10;;;;;;;3.51;100.00;99966.31;5093869;28;20035;-85
2023/11/27 08:14:55;;;;;;;31.83;18.70;;;;;;;3.55;100.00;99963.44;5075280;28;20036;-85
2023/11/27 08:17:33;;;;;;;34.13;18.75;;;;;;;3.56;100.00;99960.69;5094558;28;20035;-90
2023/11/27 08:20:28;;;;;;;29.85;18.08;;;;;;;3.56;100.00;99962.50;5060298;28;20122;-91
2023/11/27 08:22:57;;;;;;;35.85;18.67;;;;;;;3.58;100.00;99957.94;5093363;28;20038;-92
2023/11/27 08:25:24;;;;;;;31.27;18.45;;;;;;;3.61;100.00;99955.09;5093437;28;20118;-91
2023/11/27 08:27:52;;;;;;;31.20;18.98;;;;;;;3.62;100.00;99941.00;5093162;28;20061;-86
2023/11/27 08:30:18;;;;;;;32.60;18.60;;;;;;;3.63;100.00;99932.97;5092900;28;20064;-89
2023/11/27 08:32:45;;;;;;;33.95;19.70;;;;;;;3.66;100.00;99926.66;5092065;28;20028;-89
2023/11/27 08:35:11;;;;;;;31.33;19.23;;;;;;;3.67;100.00;99929.16;5092800;28;20024;-90
2023/11/27 08:37:39;;;;;;;37.50;20.27;;;;;;;3.69;100.00;99913.28;5074173;28;20039;-87
2023/11/27 08:40:07;;;;;;;38.40;19.85;;;;;;;3.71;100.00;99911.34;5074424;28;20464;-86
2023/11/27 08:42:34;;;;;;;33.22;19.25;;;;;;;3.72;100.00;99899.88;5092358;28;20020;-86
2023/11/27 08:45:10;;;;;;;38.67;22.48;;;;;;;3.78;100.00;99898.56;5092578;28;20534;-87
2023/11/27 08:47:39;;;;;;;36.28;21.10;;;;;;;3.80;100.00;99896.66;5092744;28;20039;-89
2023/11/27 08:50:07;;;;;;;34.33;20.40;;;;;;;3.79;100.00;99893.19;5092850;28;20062;-88
2023/11/27 08:52:34;;;;;;;34.05;19.67;;;;;;;3.80;100.00;99886.94;5092366;28;20028;-89
2023/11/27 08:55:00;;;;;;;31.58;19.63;;;;;;;3.81;100.00;99883.38;5092760;28;20056;-88
2023/11/27 08:57:25;;;;;;;34.03;20.00;;;;;;;3.83;100.00;99875.34;5092305;28;20059;-86
2023/11/27 08:59:51;;;;;;;32.00;18.73;;;;;;;3.84;100.00;99877.03;5092575;28;20430;-87
2023/11/27 09:02:17;;;;;;;43.83;20.20;;;;;;;3.86;100.00;99870.69;5074847;28;20032;-85
2023/11/27 09:04:45;;;;;;;36.67;19.88;;;;;;;3.88;100.00;99870.56;5073794;28;20471;-89
2023/11/27 09:07:13;;;;;;;34.47;20.10;;;;;;;3.87;100.00;99861.00;5092445;28;20028;-87
2023/11/27 09:09:38;;;;;;;33.33;20.00;;;;;;;3.87;100.00;99853.94;5093810;28;20031;-87
2023/11/27 09:12:04;;;;;;;35.75;20.30;;;;;;;3.91;100.00;99851.88;5094655;28;20020;-89
2023/11/27 09:14:30;;;;;;;37.45;20.02;;;;;;;3.94;100.00;99851.69;5058052;28;20032;-90
2023/11/27 09:16:55;;;;;;;37.95;21.20;;;;;;;3.94;100.00;99843.78;5092099;28;20085;-84
2023/11/27 09:19:23;;;;;;;36.88;20.23;;;;;;;3.96;100.00;99846.28;5074198;28;20445;-90
2023/11/27 09:21:48;;;;;;;37.15;21.08;;;;;;;3.98;100.00;99847.81;5092504;28;20025;-86
2023/11/27 09:24:14;;;;;;;38.88;21.42;;;;;;;3.98;100.00;99839.09;5092067;28;20123;-91
2023/11/27 09:26:39;;;;;;;35.05;20.35;;;;;;;4.01;100.00;99839.69;5091841;28;20063;-85
2023/11/27 09:29:04;;;;;;;32.45;20.23;;;;;;;4.03;100.00;99834.28;5056795;28;20062;-86
2023/11/27 09:31:30;;;;;;;35.92;20.15;;;;;;;4.03;100.00;99829.03;5073641;28;20028;-85
2023/11/27 09:33:55;;;;;;;36.60;20.88;;;;;;;4.05;100.00;99829.78;5073634;28;20085;-86
2023/11/27 09:36:21;;;;;;;37.05;20.88;;;;;;;4.05;100.00;99822.69;5091458;28;20059;-84
2023/11/27 09:38:47;;;;;;;36.53;20.85;;;;;;;4.05;100.00;99822.69;5073664;28;20417;-87
2023/11/27 09:41:16;;;;;;;34.70;20.02;;;;;;;4.07;100.00;99822.56;5073752;28;20028;-86
2023/11/27 09:43:42;;;;;;;36.75;20.25;;;;;;;4.08;100.00;99820.81;5091669;28;20052;-88
2023/11/27 09:46:13;;;;;;;40.17;20.25;;;;;;;4.10;100.00;99818.88;5077866;28;20071;-84
2023/11/27 09:48:40;;;;;;;32.80;20.00;;;;;;;4.10;100.00;99813.59;5077921;28;20051;-83
2023/11/27 09:51:11;;;;;;;38.58;21.77;;;;;;;4.11;100.00;99816.13;5095534;28;20502;-81
2023/11/27 09:53:41;;;;;;;36.17;20.85;;;;;;;4.13;100.00;99811.56;5061483;28;20032;-84
2023/11/27 09:56:08;;;;;;;36.53;20.70;;;;;;;4.14;100.00;99813.22;5095342;28;20036;-86
2023/11/27 09:58:36;;;;;;;36.47;20.63;;;;;;;4.14;100.00;99815.88;5094937;28;20052;-85
2023/11/27 10:01:05;;;;;;;36.30;20.38;;;;;;;4.19;100.00;99812.88;5095058;28;20058;-83
2023/11/27 10:03:31;;;;;;;36.63;20.98;;;;;;;4.21;100.00;99811.78;5095297;28;20452;-81
2023/11/27 10:05:57;;;;;;;35.88;20.77;;;;;;;4.22;100.00;99805.56;5077147;28;20042;-85
2023/11/27 10:08:26;;;;;;;34.50;20.77;;;;;;;4.23;100.00;99801.13;5095005;28;20091;-84
2023/11/27 10:10:52;;;;;;;34.47;20.70;;;;;;;4.24;100.00;99795.75;5095837;28;20046;-83
2023/11/27 10:13:29;;;;;;;36.63;20.63;;;;;;;4.28;100.00;99796.31;5095835;28;20518;-84
2023/11/27 10:16:05;;;;;;;38.17;20.90;;;;;;;4.29;100.00;99794.53;5096020;28;20025;-91
2023/11/27 10:18:32;;;;;;;33.10;21.02;;;;;;;4.29;100.00;99789.28;5096080;28;20032;-87
2023/11/27 10:20:58;;;;;;;36.50;20.67;;;;;;;4.25;100.00;99780.75;5077265;28;20035;-81
2023/11/27 10:23:26;;;;;;;37.80;20.73;;;;;;;4.23;100.00;99767.72;5096513;28;20032;-86
2023/11/27 10:25:57;;;;;;;34.00;20.27;;;;;;;4.23;100.00;99766.91;5096147;28;20465;-87
2023/11/27 10:28:22;;;;;;;34.22;20.83;;;;;;;4.23;100.00;99766.91;5096021;28;20055;-88
2023/11/27 10:30:49;;;;;;;33.35;20.35;;;;;;;4.24;100.00;99758.88;5096163;28;20071;-84
2023/11/27 10:33:15;;;;;;;34.90;19.83;;;;;;;4.24;100.00;99752.78;5095925;28;20032;-85
2023/11/27 10:35:41;;;;;;;37.13;21.90;;;;;;;4.28;100.00;99753.34;5095517;28;20072;-83
2023/11/27 10:38:15;;;;;;;37.95;20.85;;;;;;;4.29;100.00;99755.88;5078036;28;20066;-88
2023/11/27 10:40:41;;;;;;;31.48;18.63;;;;;;;4.30;100.00;99748.78;5096342;28;20111;-84
2023/11/27 10:43:10;;;;;;;34.53;19.75;;;;;;;4.29;100.00;99747.13;5077456;28;20392;-82
2023/11/27 10:45:38;;;;;;;32.65;19.20;;;;;;;4.29;100.00;99747.13;5095531;28;20028;-87
2023/11/27 10:48:04;;;;;;;35.53;19.05;;;;;;;4.27;100.00;99747.25;5078628;28;20039;-85
2023/11/27 10:50:35;;;;;;;30.92;18.58;;;;;;;4.27;100.00;99741.13;5095216;28;20528;-84
2023/11/27 10:53:02;;;;;;;29.40;17.73;;;;;;;4.24;100.00;99736.97;5095806;28;20036;-86
2023/11/27 10:55:29;;;;;;;28.48;17.98;;;;;;;4.20;100.00;99739.00;5094924;28;20032;-81
2023/11/27 10:57:57;;;;;;;25.65;16.73;;;;;;;4.18;100.00;99725.16;5094819;28;20480;-91
2023/11/27 11:00:29;;;;;;;30.80;16.92;;;;;;;4.14;100.00;99720.25;5095532;28;20024;-84
2023/11/27 11:03:21;;;;;;;28.63;17.58;;;;;;;4.15;100.00;99728.03;5061701;28;20067;-91
2023/11/27 11:05:56;;;;;;;;;;;;;;;4.16;100.00;99720.97;5078258;28;20426;-82
2023/11/27 11:08:23;;;;;;;25.33;15.23;;;;;;;4.15;100.00;99719.28;5095675;28;19916;-83
2023/11/27 11:10:49;;;;;;;26.15;15.55;;;;;;;4.13;100.00;99714.13;5095324;28;20479;-85
2023/11/27 11:13:17;;;;;;;25.35;15.13;;;;;;;4.13;100.00;99702.78;5095600;28;20078;-84
2023/11/27 11:15:46;;;;;;;24.42;15.15;;;;;;;4.09;100.00;99699.56;5095801;28;20115;-83
2023/11/27 11:18:33;;;;;;;26.17;15.38;;;;;;;4.09;100.00;99696.94;5077385;28;20032;-86
2023/11/27 11:21:52;;;;;;;23.23;14.23;;;;;;;4.10;100.00;99688.06;5078147;28;20040;-85